Burstwick, United Kingdom
Current Conditions -  °F | °C
As of 7:20 PM on Monday 22 Dec 2014 (Local Time) from EGNJ Reporting Station
Broken Clouds Broken Clouds  
Wind Chill: 55°   Ceiling: 2700
Heat Index: 55°   Visibility: 6mi
Dew Point: 50°   Wind: 25mph
Humidity: 82%   Direction: 230°SW
Pressure: 29.8"   Gusts: NA
Location:  53.73°N, 0.14°W
Report Text: EGNJ 221920Z 23022KT 9999 SCT021 BKN027 13/10 Q1009
Loading
Personal Weather Stations






























Interactive Weather Map New forecast layout! Learn more

10-Day Weather Forecast

Advertisements
Track Severe Weather on mobile